createdAt,value
2022-10-03T00:02:34.843Z,0.93
2022-10-03T00:05:30.156Z,1.20
2022-10-03T00:08:42.478Z,1.30
2022-10-03T00:11:36.895Z,1.10
2022-10-03T00:14:27.219Z,1.10
2022-10-03T00:17:18.309Z,1.00
2022-10-03T00:20:23.650Z,0.97
2022-10-03T00:23:22.432Z,0.80
2022-10-03T00:26:22.789Z,1.20
2022-10-03T00:29:39.490Z,1.00
2022-10-03T00:32:18.578Z,1.23
2022-10-03T00:35:14.964Z,1.30
2022-10-03T00:38:22.629Z,0.93
2022-10-03T00:41:16.371Z,1.10
2022-10-03T00:44:22.662Z,1.07
2022-10-03T00:47:14.157Z,1.30
2022-10-03T00:50:01.928Z,1.20
2022-10-03T00:52:44.017Z,1.30
2022-10-03T00:55:43.970Z,1.20
2022-10-03T00:58:51.649Z,1.20
2022-10-03T01:01:44.698Z,1.13
2022-10-03T01:04:42.096Z,1.10
2022-10-03T01:08:02.738Z,1.00
2022-10-03T01:10:52.918Z,1.23
2022-10-03T01:13:26.261Z,1.33
2022-10-03T01:16:25.481Z,1.30
2022-10-03T01:19:21.731Z,1.10
2022-10-03T01:22:50.591Z,1.10
2022-10-03T01:25:51.991Z,1.20
2022-10-03T01:28:49.439Z,1.20
2022-10-03T01:31:25.710Z,1.10
2022-10-03T01:34:12.136Z,0.90
2022-10-03T01:36:58.021Z,1.10
2022-10-03T01:39:37.449Z,1.13
2022-10-03T01:42:20.791Z,1.20
2022-10-03T01:45:56.283Z,1.10
2022-10-03T01:49:08.632Z,1.20
2022-10-03T01:52:17.264Z,1.20
2022-10-03T01:55:26.148Z,1.50
2022-10-03T01:58:14.491Z,1.57
2022-10-03T02:01:04.898Z,1.57
2022-10-03T02:03:51.831Z,1.40
2022-10-03T02:06:56.283Z,1.43
2022-10-03T02:09:46.790Z,1.50
2022-10-03T02:12:23.192Z,1.53
2022-10-03T02:15:29.174Z,1.40
2022-10-03T02:18:36.779Z,1.20
2022-10-03T02:21:23.065Z,1.30
2022-10-03T02:24:08.417Z,1.20
2022-10-03T02:27:07.789Z,1.23
2022-10-03T02:30:15.038Z,1.40
2022-10-03T02:33:15.509Z,1.20
2022-10-03T02:36:10.550Z,1.10
2022-10-03T02:38:53.278Z,1.23
2022-10-03T02:41:42.635Z,1.40
2022-10-03T02:44:50.930Z,1.30
2022-10-03T02:48:27.424Z,1.10
2022-10-03T02:51:43.355Z,1.30
2022-10-03T02:54:59.517Z,1.20
2022-10-03T02:57:54.929Z,1.13
2022-10-03T03:00:46.993Z,1.10
2022-10-03T03:03:39.165Z,1.20
2022-10-03T03:06:31.052Z,1.30
2022-10-03T03:09:57.290Z,0.90
2022-10-03T03:13:29.149Z,1.23
2022-10-03T03:16:26.577Z,1.00
2022-10-03T03:19:35.135Z,1.10
2022-10-03T03:22:43.733Z,1.10
2022-10-03T03:25:48.684Z,1.30
2022-10-03T03:28:45.403Z,1.20
2022-10-03T03:31:13.848Z,1.07
2022-10-03T03:34:20.272Z,1.00
2022-10-03T03:37:02.020Z,1.30
2022-10-03T03:39:42.497Z,2.40
2022-10-03T03:42:46.441Z,3.50
2022-10-03T03:45:44.654Z,3.70
2022-10-03T03:48:35.578Z,6.37
2022-10-03T03:51:34.598Z,7.87
2022-10-03T03:55:02.067Z,6.80
2022-10-03T03:57:49.112Z,8.63
2022-10-03T04:01:01.636Z,4.27
2022-10-03T04:03:45.436Z,4.27
2022-10-03T04:06:44.273Z,3.90
2022-10-03T04:09:44.380Z,3.33
2022-10-03T04:12:50.300Z,2.70
2022-10-03T04:15:43.905Z,2.63
2022-10-03T04:18:17.158Z,3.23
2022-10-03T04:21:16.870Z,3.30
2022-10-03T04:23:55.281Z,3.00
2022-10-03T04:26:46.593Z,4.20
2022-10-03T04:29:58.544Z,4.70
2022-10-03T04:33:04.826Z,4.50
2022-10-03T04:35:41.101Z,8.20
2022-10-03T04:38:38.773Z,3.70
2022-10-03T04:41:32.377Z,3.40
2022-10-03T04:44:38.280Z,3.27
2022-10-03T04:47:47.880Z,7.17
2022-10-03T04:50:43.741Z,8.67
2022-10-03T04:54:00.037Z,10.23
2022-10-03T04:56:49.799Z,10.03
2022-10-03T05:00:00.117Z,8.20
2022-10-03T05:03:04.672Z,5.70
2022-10-03T05:06:10.203Z,5.50
2022-10-03T05:08:54.032Z,5.90
2022-10-03T05:11:56.039Z,7.73
2022-10-03T05:14:50.996Z,5.20
2022-10-03T05:17:38.969Z,4.07
2022-10-03T05:20:30.891Z,3.67
2022-10-03T05:23:51.621Z,9.10
2022-10-03T05:26:46.797Z,6.13
2022-10-03T05:29:24.833Z,4.70
2022-10-03T05:32:36.391Z,4.70
2022-10-03T05:35:40.778Z,5.13
2022-10-03T05:38:15.974Z,5.10
2022-10-03T05:41:09.015Z,5.97
2022-10-03T05:43:51.203Z,5.43
2022-10-03T05:47:08.477Z,7.37
2022-10-03T05:50:10.976Z,6.63
2022-10-03T05:53:24.730Z,7.20
2022-10-03T05:56:09.275Z,5.30
2022-10-03T05:59:03.767Z,5.67
2022-10-03T06:02:04.088Z,5.10
2022-10-03T06:05:08.042Z,4.90
2022-10-03T06:08:21.624Z,4.93
2022-10-03T06:11:34.353Z,4.70
2022-10-03T06:14:31.196Z,5.20
2022-10-03T06:17:43.825Z,6.20
2022-10-03T06:20:32.215Z,7.47
2022-10-03T06:23:47.095Z,11.40
2022-10-03T06:26:46.143Z,9.13
2022-10-03T06:30:03.401Z,5.67
2022-10-03T06:33:04.213Z,5.77
2022-10-03T06:36:15.244Z,5.50
2022-10-03T06:39:25.051Z,4.00
2022-10-03T06:42:28.912Z,7.00
2022-10-03T06:45:33.288Z,7.77
2022-10-03T06:48:24.372Z,6.70
2022-10-03T06:51:01.874Z,5.50
2022-10-03T06:54:19.573Z,3.53
2022-10-03T06:57:22.920Z,5.10
2022-10-03T07:00:19.710Z,4.47
2022-10-03T07:03:46.072Z,4.47
2022-10-03T07:06:52.178Z,3.60
2022-10-03T07:09:40.335Z,2.50
2022-10-03T07:12:50.653Z,3.90
2022-10-03T07:16:08.846Z,3.50
2022-10-03T07:19:03.144Z,3.97
2022-10-03T07:21:50.904Z,3.23
2022-10-03T07:24:55.474Z,5.00
2022-10-03T07:28:02.007Z,3.10
2022-10-03T07:30:59.020Z,3.70
2022-10-03T07:34:15.444Z,4.50
2022-10-03T07:36:54.732Z,3.93
2022-10-03T07:39:47.458Z,5.00
2022-10-03T07:42:55.021Z,3.47
2022-10-03T07:45:28.871Z,2.00
2022-10-03T07:48:29.427Z,1.70
2022-10-03T07:51:13.889Z,1.90
2022-10-03T07:54:27.102Z,1.47
2022-10-03T07:57:00.340Z,0.80
2022-10-03T07:59:36.210Z,1.50
2022-10-03T08:02:29.297Z,1.00
2022-10-03T08:05:29.015Z,0.63
2022-10-03T08:08:48.095Z,0.97
2022-10-03T08:11:33.150Z,0.70
2022-10-03T08:14:48.975Z,0.60
2022-10-03T08:18:07.900Z,0.80
2022-10-03T08:20:52.687Z,0.80
2022-10-03T08:23:52.593Z,0.90
2022-10-03T08:26:42.530Z,0.70
2022-10-03T08:29:42.972Z,0.90
2022-10-03T08:32:55.969Z,1.50
2022-10-03T08:35:35.094Z,0.60
2022-10-03T08:38:40.401Z,0.60
2022-10-03T08:41:47.903Z,0.80
2022-10-03T08:44:45.916Z,0.80
2022-10-03T08:47:40.062Z,0.70
2022-10-03T08:51:13.766Z,0.60
2022-10-03T08:54:15.931Z,0.80
2022-10-03T08:57:07.328Z,0.80
2022-10-03T09:00:10.862Z,0.80
2022-10-03T09:03:28.222Z,0.70
2022-10-03T09:06:20.985Z,0.80
2022-10-03T09:09:31.080Z,0.80
2022-10-03T09:12:32.148Z,0.70
2022-10-03T09:15:23.757Z,0.70
2022-10-03T09:18:02.986Z,0.70
2022-10-03T09:21:25.934Z,0.70
2022-10-03T09:24:18.083Z,1.20
2022-10-03T09:27:33.322Z,1.30
2022-10-03T09:30:20.940Z,0.97
2022-10-03T09:33:44.123Z,0.90
2022-10-03T09:37:00.836Z,0.70
2022-10-03T09:40:01.645Z,0.73
2022-10-03T09:43:12.101Z,0.93
2022-10-03T09:46:21.736Z,0.73
2022-10-03T09:49:09.934Z,0.83
2022-10-03T09:52:16.535Z,0.60
2022-10-03T09:55:03.872Z,0.60
2022-10-03T09:57:52.125Z,0.90
2022-10-03T10:00:53.863Z,0.70
2022-10-03T10:04:28.280Z,0.60
2022-10-03T10:07:28.629Z,0.70
2022-10-03T10:10:32.874Z,0.60
2022-10-03T10:13:49.752Z,0.50
2022-10-03T10:17:20.645Z,0.67
2022-10-03T10:20:23.686Z,0.93
2022-10-03T10:23:25.845Z,0.60
2022-10-03T10:26:09.774Z,0.70
2022-10-03T10:28:55.642Z,0.60
2022-10-03T10:32:02.861Z,0.50
2022-10-03T10:34:45.315Z,0.50
2022-10-03T10:37:49.853Z,0.60
2022-10-03T10:41:23.029Z,0.60
2022-10-03T10:44:42.377Z,0.63
2022-10-03T10:47:49.851Z,0.60
2022-10-03T10:50:26.510Z,0.60
2022-10-03T10:53:30.857Z,0.70
2022-10-03T10:56:33.696Z,0.77
2022-10-03T10:59:57.304Z,0.70
2022-10-03T11:03:23.413Z,0.70
2022-10-03T11:05:53.703Z,0.82
2022-10-03T11:09:11.181Z,0.68
2022-10-03T11:11:50.765Z,0.80
2022-10-03T11:14:30.556Z,1.00
2022-10-03T11:17:49.520Z,0.95
2022-10-03T11:20:38.383Z,0.70
2022-10-03T11:23:36.157Z,0.88
2022-10-03T11:26:27.853Z,0.90
2022-10-03T11:29:13.794Z,0.80
2022-10-03T11:31:56.153Z,0.88
2022-10-03T11:34:57.443Z,0.70
2022-10-03T11:37:37.342Z,0.80
2022-10-03T11:40:30.755Z,1.23
2022-10-03T11:43:35.005Z,0.73
2022-10-03T11:46:14.186Z,1.10
2022-10-03T11:48:56.224Z,0.70
2022-10-03T11:52:13.630Z,0.70
2022-10-03T11:54:47.112Z,0.70
2022-10-03T11:57:35.623Z,0.65
2022-10-03T12:00:20.937Z,0.75
2022-10-03T12:03:11.863Z,0.80
2022-10-03T12:06:13.844Z,0.85
2022-10-03T12:09:02.660Z,0.70
2022-10-03T12:11:42.803Z,0.70
2022-10-03T12:14:11.764Z,0.90
2022-10-03T12:17:18.056Z,0.75
2022-10-03T12:20:20.805Z,0.75
2022-10-03T12:22:55.873Z,0.75
2022-10-03T12:25:35.310Z,1.00
2022-10-03T12:28:24.314Z,0.75
2022-10-03T12:31:10.520Z,0.63
2022-10-03T12:34:05.154Z,0.65
2022-10-03T12:37:09.271Z,0.90
2022-10-03T12:40:23.669Z,0.90
2022-10-03T12:43:30.276Z,0.90
2022-10-03T12:46:28.117Z,0.75
2022-10-03T12:49:26.690Z,1.10
2022-10-03T12:52:09.089Z,0.80
2022-10-03T12:54:57.284Z,0.90
2022-10-03T12:58:02.264Z,1.20
2022-10-03T13:00:50.113Z,0.80
2022-10-03T13:03:42.123Z,2.75
2022-10-03T13:06:38.861Z,1.60
2022-10-03T13:09:51.420Z,0.80
2022-10-03T13:12:40.037Z,0.88
2022-10-03T13:16:21.534Z,0.70
2022-10-03T13:19:03.114Z,1.15
2022-10-03T13:22:03.498Z,0.70
2022-10-03T13:24:48.555Z,0.70
2022-10-03T13:27:35.257Z,0.90
2022-10-03T13:30:29.890Z,0.60
2022-10-03T13:33:23.724Z,0.88
2022-10-03T13:36:33.308Z,0.80
2022-10-03T13:39:15.961Z,0.90
2022-10-03T13:42:03.897Z,0.80
2022-10-03T13:45:13.764Z,0.80
2022-10-03T13:47:50.324Z,0.73
2022-10-03T13:50:33.361Z,1.00
2022-10-03T13:53:12.431Z,0.90
2022-10-03T13:55:55.100Z,0.75
2022-10-03T13:58:42.755Z,1.08
2022-10-03T14:01:52.394Z,0.90
2022-10-03T14:04:47.060Z,1.02
2022-10-03T14:08:05.325Z,0.85
2022-10-03T14:11:06.763Z,0.90
2022-10-03T14:14:05.824Z,1.00
2022-10-03T14:16:42.077Z,1.00
2022-10-03T14:19:52.840Z,1.50
2022-10-03T14:22:52.223Z,2.28
2022-10-03T14:25:43.797Z,1.83
2022-10-03T14:28:37.694Z,1.48
2022-10-03T14:31:16.837Z,1.45
2022-10-03T14:33:53.299Z,0.85
2022-10-03T14:36:48.094Z,1.20
2022-10-03T14:39:45.971Z,1.83
2022-10-03T14:42:44.102Z,1.00
2022-10-03T14:45:22.326Z,0.82
2022-10-03T14:48:12.623Z,1.05
2022-10-03T14:50:42.243Z,4.85
2022-10-03T14:53:23.385Z,3.00
2022-10-03T14:56:12.186Z,2.70
2022-10-03T14:58:49.156Z,1.92
2022-10-03T15:01:21.082Z,3.17
2022-10-03T15:04:24.530Z,1.48
2022-10-03T15:06:54.716Z,1.00
2022-10-03T15:09:34.597Z,1.05
2022-10-03T15:12:07.606Z,1.05
2022-10-03T15:14:43.015Z,0.90
2022-10-03T15:17:28.647Z,1.60
2022-10-03T15:19:59.598Z,2.22
2022-10-03T15:22:37.804Z,2.78
2022-10-03T15:25:41.783Z,4.50
2022-10-03T15:28:21.671Z,12.13
2022-10-03T15:30:53.973Z,2.23
2022-10-03T15:33:38.013Z,1.37
2022-10-03T15:36:14.212Z,1.20
2022-10-03T15:38:49.261Z,1.73
2022-10-03T15:41:36.983Z,2.43
2022-10-03T15:44:27.402Z,5.00
2022-10-03T15:47:04.904Z,1.87
2022-10-03T15:50:07.147Z,1.50
2022-10-03T15:52:48.049Z,2.20
2022-10-03T15:55:36.436Z,2.60
2022-10-03T15:58:17.935Z,1.60
2022-10-03T16:00:59.686Z,1.10
2022-10-03T16:03:40.691Z,1.77
2022-10-03T16:06:22.928Z,0.80
2022-10-03T16:09:30.781Z,1.37
2022-10-03T16:12:49.365Z,1.03
2022-10-03T16:16:10.221Z,1.33
2022-10-03T16:19:25.314Z,1.23
2022-10-03T16:22:21.473Z,4.70
2022-10-03T16:25:16.105Z,10.70
2022-10-03T16:27:56.128Z,12.53
2022-10-03T16:30:42.408Z,18.67
2022-10-03T16:33:09.728Z,7.90
2022-10-03T16:35:40.738Z,5.87
2022-10-03T16:38:22.669Z,13.27
2022-10-03T16:41:00.406Z,6.10
2022-10-03T16:43:32.145Z,3.23
2022-10-03T16:46:38.879Z,4.57
2022-10-03T16:49:24.980Z,8.83
2022-10-03T16:52:04.290Z,2.80
2022-10-03T16:54:32.257Z,6.07
2022-10-03T16:57:05.198Z,7.80
2022-10-03T16:59:36.372Z,15.17
2022-10-03T17:02:15.489Z,10.77
2022-10-03T17:04:49.323Z,12.37
2022-10-03T17:07:25.611Z,7.53
2022-10-03T17:09:57.379Z,8.60
2022-10-03T17:12:58.890Z,6.30
2022-10-03T17:15:35.999Z,4.07
2022-10-03T17:18:29.681Z,9.03
2022-10-03T17:21:15.522Z,7.07
2022-10-03T17:24:13.258Z,8.30
2022-10-03T17:26:50.031Z,16.10
2022-10-03T17:29:33.237Z,5.70
2022-10-03T17:32:01.363Z,11.90
2022-10-03T17:34:50.293Z,11.73
2022-10-03T17:37:41.588Z,13.90
2022-10-03T17:40:23.376Z,9.17
2022-10-03T17:43:04.397Z,6.70
2022-10-03T17:45:43.348Z,3.10
2022-10-03T17:48:24.049Z,5.23
2022-10-03T17:51:23.491Z,4.47
2022-10-03T17:53:57.849Z,5.87
2022-10-03T17:56:30.070Z,5.97
2022-10-03T17:59:43.744Z,6.73
2022-10-03T18:02:24.209Z,6.73
2022-10-03T18:05:07.326Z,4.17
2022-10-03T18:07:36.762Z,2.80
2022-10-03T18:10:16.514Z,3.30
2022-10-03T18:12:44.475Z,3.40
2022-10-03T18:15:54.908Z,3.10
2022-10-03T18:18:54.064Z,3.13
2022-10-03T18:21:54.845Z,2.70
2022-10-03T18:24:36.946Z,2.43
2022-10-03T18:27:30.988Z,2.27
2022-10-03T18:30:06.512Z,1.90
2022-10-03T18:32:41.299Z,2.80
2022-10-03T18:35:34.138Z,2.57
2022-10-03T18:38:20.384Z,2.43
2022-10-03T18:41:00.177Z,2.70
2022-10-03T18:43:39.546Z,2.70
2022-10-03T18:46:16.098Z,2.53
2022-10-03T18:49:28.146Z,1.90
2022-10-03T18:52:24.080Z,2.50
2022-10-03T18:55:27.844Z,2.40
2022-10-03T18:58:23.852Z,2.50
2022-10-03T19:01:16.639Z,2.27
2022-10-03T19:04:02.296Z,2.00
2022-10-03T19:06:49.187Z,1.90
2022-10-03T19:10:08.652Z,2.00
2022-10-03T19:12:43.211Z,2.47
2022-10-03T19:15:38.573Z,3.30
2022-10-03T19:18:39.051Z,2.00
2022-10-03T19:21:18.685Z,2.60
2022-10-03T19:24:07.349Z,3.60
2022-10-03T19:26:37.991Z,2.57
2022-10-03T19:29:13.498Z,2.37
2022-10-03T19:32:03.890Z,2.23
2022-10-03T19:34:43.604Z,5.50
2022-10-03T19:37:25.728Z,2.93
2022-10-03T19:39:53.286Z,2.63
2022-10-03T19:42:44.981Z,2.00
2022-10-03T19:45:15.175Z,1.90
2022-10-03T19:47:58.800Z,2.80
2022-10-03T19:50:36.493Z,2.40
2022-10-03T19:53:18.544Z,2.30
2022-10-03T19:55:50.095Z,2.30
2022-10-03T19:58:24.323Z,2.07
2022-10-03T20:01:02.525Z,1.73
2022-10-03T20:03:40.151Z,1.70
2022-10-03T20:06:35.268Z,1.90
2022-10-03T20:09:18.835Z,2.80
2022-10-03T20:12:01.918Z,2.40
2022-10-03T20:14:40.729Z,2.20
2022-10-03T20:17:23.370Z,2.10
2022-10-03T20:19:54.421Z,2.10
2022-10-03T20:22:30.552Z,2.60
2022-10-03T20:25:00.557Z,2.40
2022-10-03T20:27:52.660Z,2.80
2022-10-03T20:30:38.965Z,2.20
2022-10-03T20:33:07.923Z,2.33
2022-10-03T20:36:05.169Z,2.50
2022-10-03T20:38:53.520Z,1.67
2022-10-03T20:41:40.696Z,1.73
2022-10-03T20:44:44.569Z,2.00
2022-10-03T20:47:43.611Z,5.70
2022-10-03T20:50:24.397Z,4.87
2022-10-03T20:53:04.450Z,4.97
2022-10-03T20:55:43.996Z,2.93
2022-10-03T20:58:47.957Z,2.33
2022-10-03T21:01:27.006Z,2.83
2022-10-03T21:04:25.782Z,3.40
2022-10-03T21:07:06.492Z,4.00
2022-10-03T21:09:44.765Z,2.73
2022-10-03T21:12:32.395Z,2.50
2022-10-03T21:15:12.135Z,2.10
2022-10-03T21:17:44.154Z,2.10
2022-10-03T21:20:21.882Z,2.10
2022-10-03T21:22:53.822Z,2.10
2022-10-03T21:25:24.170Z,1.97
2022-10-03T21:27:57.011Z,1.40
2022-10-03T21:30:49.423Z,1.43
2022-10-03T21:33:27.297Z,1.57
2022-10-03T21:35:55.115Z,1.20
2022-10-03T21:38:32.807Z,1.23
2022-10-03T21:41:11.923Z,1.43
2022-10-03T21:44:04.465Z,1.60
2022-10-03T21:46:52.638Z,1.50
2022-10-03T21:49:58.004Z,1.40
2022-10-03T21:52:58.420Z,1.40
2022-10-03T21:55:51.172Z,1.30
2022-10-03T21:58:46.545Z,1.20
2022-10-03T22:01:52.582Z,1.70
2022-10-03T22:04:47.765Z,1.40
2022-10-03T22:07:26.939Z,1.20
2022-10-03T22:09:57.865Z,1.20
2022-10-03T22:12:31.224Z,1.40
2022-10-03T22:15:16.716Z,1.47
2022-10-03T22:18:02.451Z,1.40
2022-10-03T22:20:34.429Z,1.20
2022-10-03T22:23:19.485Z,1.20
2022-10-03T22:26:29.878Z,1.23
2022-10-03T22:29:16.023Z,1.30
2022-10-03T22:32:09.977Z,1.30
2022-10-03T22:34:58.512Z,1.33
2022-10-03T22:37:27.434Z,1.43
2022-10-03T22:39:59.301Z,1.00
2022-10-03T22:42:33.920Z,1.20
2022-10-03T22:45:05.832Z,1.23
2022-10-03T22:47:35.981Z,1.47
2022-10-03T22:50:10.867Z,1.10
2022-10-03T22:52:43.748Z,1.30
2022-10-03T22:55:16.491Z,1.00
2022-10-03T22:57:45.784Z,1.20
2022-10-03T23:00:21.647Z,1.30
2022-10-03T23:02:58.192Z,1.20
2022-10-03T23:05:55.524Z,1.20
2022-10-03T23:08:48.418Z,1.20
2022-10-03T23:11:29.305Z,1.40
2022-10-03T23:14:17.842Z,1.20
2022-10-03T23:17:06.300Z,1.13
2022-10-03T23:20:10.877Z,1.10
2022-10-03T23:22:46.156Z,1.03
2022-10-03T23:25:33.204Z,1.17
2022-10-03T23:28:03.651Z,1.30
2022-10-03T23:30:45.217Z,1.13
2022-10-03T23:33:40.085Z,1.27
2022-10-03T23:36:21.976Z,1.30
2022-10-03T23:38:49.126Z,1.17
2022-10-03T23:41:59.058Z,1.20
2022-10-03T23:44:54.926Z,1.10
2022-10-03T23:47:40.624Z,1.03
2022-10-03T23:50:09.879Z,1.20
2022-10-03T23:52:50.124Z,1.30
2022-10-03T23:55:35.068Z,1.70
2022-10-03T23:58:16.017Z,2.13
